sensor_id;sensor_type;location;lat;lon;timestamp;P1;durP1;ratioP1;P2;durP2;ratioP2
59930;SDS011;45790;51.538;6.736;2022-12-20T00:01:28;12.25;;;4.25;;
59930;SDS011;45790;51.538;6.736;2022-12-20T00:03:56;15.73;;;4.32;;
59930;SDS011;45790;51.538;6.736;2022-12-20T00:06:23;12.20;;;4.70;;
59930;SDS011;45790;51.538;6.736;2022-12-20T00:08:52;11.30;;;4.20;;
59930;SDS011;45790;51.538;6.736;2022-12-20T00:11:21;8.27;;;4.43;;
59930;SDS011;45790;51.538;6.736;2022-12-20T00:13:47;11.57;;;4.47;;
59930;SDS011;45790;51.538;6.736;2022-12-20T00:16:13;8.48;;;4.03;;
59930;SDS011;45790;51.538;6.736;2022-12-20T00:18:40;9.52;;;3.95;;
59930;SDS011;45790;51.538;6.736;2022-12-20T00:21:07;13.15;;;4.63;;
59930;SDS011;45790;51.538;6.736;2022-12-20T00:23:34;9.57;;;4.15;;
59930;SDS011;45790;51.538;6.736;2022-12-20T00:26:05;9.30;;;4.55;;
59930;SDS011;45790;51.538;6.736;2022-12-20T00:28:38;12.05;;;4.80;;
59930;SDS011;45790;51.538;6.736;2022-12-20T00:31:04;14.95;;;4.95;;
59930;SDS011;45790;51.538;6.736;2022-12-20T00:33:31;14.02;;;4.47;;
59930;SDS011;45790;51.538;6.736;2022-12-20T00:35:59;11.73;;;4.72;;
59930;SDS011;45790;51.538;6.736;2022-12-20T00:38:25;10.77;;;4.30;;
59930;SDS011;45790;51.538;6.736;2022-12-20T00:41:04;10.82;;;4.47;;
59930;SDS011;45790;51.538;6.736;2022-12-20T00:43:48;13.70;;;4.35;;
59930;SDS011;45790;51.538;6.736;2022-12-20T00:46:14;9.93;;;4.50;;
59930;SDS011;45790;51.538;6.736;2022-12-20T00:48:41;11.20;;;4.43;;
59930;SDS011;45790;51.538;6.736;2022-12-20T00:51:17;13.50;;;5.00;;
59930;SDS011;45790;51.538;6.736;2022-12-20T00:53:52;12.55;;;4.50;;
59930;SDS011;45790;51.538;6.736;2022-12-20T00:56:17;10.90;;;4.63;;
59930;SDS011;45790;51.538;6.736;2022-12-20T00:58:43;12.38;;;5.00;;
59930;SDS011;45790;51.538;6.736;2022-12-20T01:03:48;10.98;;;4.43;;
59930;SDS011;45790;51.538;6.736;2022-12-20T01:06:14;15.40;;;4.80;;
59930;SDS011;45790;51.538;6.736;2022-12-20T01:08:39;12.50;;;4.57;;
59930;SDS011;45790;51.538;6.736;2022-12-20T01:11:07;12.98;;;4.85;;
59930;SDS011;45790;51.538;6.736;2022-12-20T01:13:36;14.65;;;5.30;;
59930;SDS011;45790;51.538;6.736;2022-12-20T01:16:04;14.85;;;4.65;;
59930;SDS011;45790;51.538;6.736;2022-12-20T01:18:39;14.57;;;4.38;;
59930;SDS011;45790;51.538;6.736;2022-12-20T01:21:06;16.10;;;4.70;;
59930;SDS011;45790;51.538;6.736;2022-12-20T01:23:36;11.27;;;4.55;;
59930;SDS011;45790;51.538;6.736;2022-12-20T01:26:02;14.18;;;4.15;;
59930;SDS011;45790;51.538;6.736;2022-12-20T01:28:37;8.65;;;4.68;;
59930;SDS011;45790;51.538;6.736;2022-12-20T01:31:08;10.32;;;4.20;;
59930;SDS011;45790;51.538;6.736;2022-12-20T01:33:36;12.90;;;4.50;;
59930;SDS011;45790;51.538;6.736;2022-12-20T01:36:05;11.23;;;4.68;;
59930;SDS011;45790;51.538;6.736;2022-12-20T01:38:35;14.70;;;3.88;;
59930;SDS011;45790;51.538;6.736;2022-12-20T01:41:00;16.30;;;4.65;;
59930;SDS011;45790;51.538;6.736;2022-12-20T01:46:18;9.93;;;4.38;;
59930;SDS011;45790;51.538;6.736;2022-12-20T01:48:51;10.85;;;4.88;;
59930;SDS011;45790;51.538;6.736;2022-12-20T01:51:24;9.02;;;4.38;;
59930;SDS011;45790;51.538;6.736;2022-12-20T01:53:50;11.82;;;4.70;;
59930;SDS011;45790;51.538;6.736;2022-12-20T01:56:21;10.30;;;4.28;;
59930;SDS011;45790;51.538;6.736;2022-12-20T01:58:47;11.38;;;4.47;;
59930;SDS011;45790;51.538;6.736;2022-12-20T02:01:13;8.65;;;4.32;;
59930;SDS011;45790;51.538;6.736;2022-12-20T02:03:38;7.80;;;3.88;;
59930;SDS011;45790;51.538;6.736;2022-12-20T02:06:12;14.15;;;4.57;;
59930;SDS011;45790;51.538;6.736;2022-12-20T02:08:42;11.40;;;4.35;;
59930;SDS011;45790;51.538;6.736;2022-12-20T02:17:24;8.43;;;3.80;;
59930;SDS011;45790;51.538;6.736;2022-12-20T02:19:33;10.00;;;4.22;;
59930;SDS011;45790;51.538;6.736;2022-12-20T02:22:15;7.78;;;3.60;;
59930;SDS011;45790;51.538;6.736;2022-12-20T02:27:44;9.35;;;3.75;;
59930;SDS011;45790;51.538;6.736;2022-12-20T02:30:17;12.95;;;4.25;;
59930;SDS011;45790;51.538;6.736;2022-12-20T02:32:58;8.45;;;4.07;;
59930;SDS011;45790;51.538;6.736;2022-12-20T02:35:28;8.20;;;3.80;;
59930;SDS011;45790;51.538;6.736;2022-12-20T02:37:57;10.13;;;4.45;;
59930;SDS011;45790;51.538;6.736;2022-12-20T02:40:25;9.73;;;3.97;;
59930;SDS011;45790;51.538;6.736;2022-12-20T02:42:54;9.57;;;4.05;;
59930;SDS011;45790;51.538;6.736;2022-12-20T02:45:24;9.90;;;4.53;;
59930;SDS011;45790;51.538;6.736;2022-12-20T02:47:55;7.68;;;3.90;;
59930;SDS011;45790;51.538;6.736;2022-12-20T02:50:36;7.80;;;3.40;;
59930;SDS011;45790;51.538;6.736;2022-12-20T02:53:04;8.65;;;3.85;;
59930;SDS011;45790;51.538;6.736;2022-12-20T02:58:28;8.40;;;3.60;;
59930;SDS011;45790;51.538;6.736;2022-12-20T03:03:23;11.02;;;3.60;;
59930;SDS011;45790;51.538;6.736;2022-12-20T03:05:53;11.00;;;4.57;;
59930;SDS011;45790;51.538;6.736;2022-12-20T03:10:45;8.98;;;3.90;;
59930;SDS011;45790;51.538;6.736;2022-12-20T03:13:14;9.50;;;4.05;;
59930;SDS011;45790;51.538;6.736;2022-12-20T03:15:39;9.80;;;3.55;;
59930;SDS011;45790;51.538;6.736;2022-12-20T03:18:07;10.65;;;4.00;;
59930;SDS011;45790;51.538;6.736;2022-12-20T03:20:33;10.15;;;4.25;;
59930;SDS011;45790;51.538;6.736;2022-12-20T03:22:58;8.57;;;4.28;;
59930;SDS011;45790;51.538;6.736;2022-12-20T03:25:23;9.88;;;4.32;;
59930;SDS011;45790;51.538;6.736;2022-12-20T03:27:49;11.93;;;4.00;;
59930;SDS011;45790;51.538;6.736;2022-12-20T03:30:14;10.27;;;4.32;;
59930;SDS011;45790;51.538;6.736;2022-12-20T03:32:40;9.93;;;4.35;;
59930;SDS011;45790;51.538;6.736;2022-12-20T03:35:05;12.40;;;4.18;;
59930;SDS011;45790;51.538;6.736;2022-12-20T03:37:31;14.65;;;4.70;;
59930;SDS011;45790;51.538;6.736;2022-12-20T03:39:56;13.88;;;5.30;;
59930;SDS011;45790;51.538;6.736;2022-12-20T03:42:22;13.45;;;4.88;;
59930;SDS011;45790;51.538;6.736;2022-12-20T03:44:47;13.93;;;4.47;;
59930;SDS011;45790;51.538;6.736;2022-12-20T03:47:12;11.38;;;5.22;;
59930;SDS011;45790;51.538;6.736;2022-12-20T03:49:38;10.20;;;4.22;;
59930;SDS011;45790;51.538;6.736;2022-12-20T03:52:03;10.18;;;4.25;;
59930;SDS011;45790;51.538;6.736;2022-12-20T03:54:29;14.20;;;5.05;;
59930;SDS011;45790;51.538;6.736;2022-12-20T03:56:54;12.50;;;5.18;;
59930;SDS011;45790;51.538;6.736;2022-12-20T03:59:19;9.40;;;4.15;;
59930;SDS011;45790;51.538;6.736;2022-12-20T04:01:45;14.75;;;4.40;;
59930;SDS011;45790;51.538;6.736;2022-12-20T04:04:11;12.57;;;5.40;;
59930;SDS011;45790;51.538;6.736;2022-12-20T04:06:37;10.57;;;4.45;;
59930;SDS011;45790;51.538;6.736;2022-12-20T04:09:03;11.48;;;4.43;;
59930;SDS011;45790;51.538;6.736;2022-12-20T04:11:28;10.13;;;4.20;;
59930;SDS011;45790;51.538;6.736;2022-12-20T04:13:53;13.77;;;4.40;;
59930;SDS011;45790;51.538;6.736;2022-12-20T04:16:20;8.35;;;4.45;;
59930;SDS011;45790;51.538;6.736;2022-12-20T04:18:47;10.50;;;5.07;;
59930;SDS011;45790;51.538;6.736;2022-12-20T04:21:13;12.88;;;4.55;;
59930;SDS011;45790;51.538;6.736;2022-12-20T04:23:39;13.02;;;5.93;;
59930;SDS011;45790;51.538;6.736;2022-12-20T04:26:06;11.13;;;4.45;;
59930;SDS011;45790;51.538;6.736;2022-12-20T04:28:32;11.55;;;4.65;;
59930;SDS011;45790;51.538;6.736;2022-12-20T04:30:58;12.88;;;4.90;;
59930;SDS011;45790;51.538;6.736;2022-12-20T04:33:24;12.55;;;5.05;;
59930;SDS011;45790;51.538;6.736;2022-12-20T04:35:50;11.68;;;4.90;;
59930;SDS011;45790;51.538;6.736;2022-12-20T04:38:16;12.63;;;5.05;;
59930;SDS011;45790;51.538;6.736;2022-12-20T04:40:42;14.60;;;5.55;;
59930;SDS011;45790;51.538;6.736;2022-12-20T04:43:07;10.27;;;5.03;;
59930;SDS011;45790;51.538;6.736;2022-12-20T04:45:33;12.80;;;5.40;;
59930;SDS011;45790;51.538;6.736;2022-12-20T04:47:58;13.20;;;5.25;;
59930;SDS011;45790;51.538;6.736;2022-12-20T04:50:24;13.27;;;5.15;;
59930;SDS011;45790;51.538;6.736;2022-12-20T04:52:49;12.43;;;5.10;;
59930;SDS011;45790;51.538;6.736;2022-12-20T04:55:37;13.93;;;5.00;;
59930;SDS011;45790;51.538;6.736;2022-12-20T04:58:03;14.73;;;5.23;;
59930;SDS011;45790;51.538;6.736;2022-12-20T05:00:28;12.73;;;4.90;;
59930;SDS011;45790;51.538;6.736;2022-12-20T05:02:56;12.35;;;4.93;;
59930;SDS011;45790;51.538;6.736;2022-12-20T05:05:22;11.88;;;5.10;;
59930;SDS011;45790;51.538;6.736;2022-12-20T05:07:47;8.68;;;4.53;;
59930;SDS011;45790;51.538;6.736;2022-12-20T05:10:12;11.57;;;4.75;;
59930;SDS011;45790;51.538;6.736;2022-12-20T05:12:38;13.05;;;5.03;;
59930;SDS011;45790;51.538;6.736;2022-12-20T05:15:04;9.27;;;5.30;;
59930;SDS011;45790;51.538;6.736;2022-12-20T05:17:29;11.85;;;5.45;;
59930;SDS011;45790;51.538;6.736;2022-12-20T05:19:54;15.98;;;5.32;;
59930;SDS011;45790;51.538;6.736;2022-12-20T05:22:20;11.07;;;5.40;;
59930;SDS011;45790;51.538;6.736;2022-12-20T05:25:03;14.45;;;6.20;;
59930;SDS011;45790;51.538;6.736;2022-12-20T05:27:47;13.15;;;5.03;;
59930;SDS011;45790;51.538;6.736;2022-12-20T05:30:13;13.13;;;5.93;;
59930;SDS011;45790;51.538;6.736;2022-12-20T05:32:39;15.93;;;5.65;;
59930;SDS011;45790;51.538;6.736;2022-12-20T05:35:05;13.80;;;6.22;;
59930;SDS011;45790;51.538;6.736;2022-12-20T05:37:30;13.02;;;5.15;;
59930;SDS011;45790;51.538;6.736;2022-12-20T05:39:56;14.48;;;5.90;;
59930;SDS011;45790;51.538;6.736;2022-12-20T05:42:21;12.35;;;6.18;;
59930;SDS011;45790;51.538;6.736;2022-12-20T05:44:46;16.60;;;5.55;;
59930;SDS011;45790;51.538;6.736;2022-12-20T05:47:11;12.93;;;5.60;;
59930;SDS011;45790;51.538;6.736;2022-12-20T05:49:37;13.93;;;5.72;;
59930;SDS011;45790;51.538;6.736;2022-12-20T05:52:05;12.60;;;5.13;;
59930;SDS011;45790;51.538;6.736;2022-12-20T05:54:31;15.20;;;6.20;;
59930;SDS011;45790;51.538;6.736;2022-12-20T05:56:57;15.15;;;5.35;;
59930;SDS011;45790;51.538;6.736;2022-12-20T05:59:22;7.88;;;4.95;;
59930;SDS011;45790;51.538;6.736;2022-12-20T06:01:48;11.40;;;4.93;;
59930;SDS011;45790;51.538;6.736;2022-12-20T06:04:13;11.25;;;5.32;;
59930;SDS011;45790;51.538;6.736;2022-12-20T06:06:38;14.05;;;5.90;;
59930;SDS011;45790;51.538;6.736;2022-12-20T06:09:04;7.75;;;4.45;;
59930;SDS011;45790;51.538;6.736;2022-12-20T06:11:29;13.80;;;5.13;;
59930;SDS011;45790;51.538;6.736;2022-12-20T06:13:54;10.75;;;4.65;;
59930;SDS011;45790;51.538;6.736;2022-12-20T06:16:20;8.85;;;4.03;;
59930;SDS011;45790;51.538;6.736;2022-12-20T06:18:49;8.20;;;4.30;;
59930;SDS011;45790;51.538;6.736;2022-12-20T06:21:17;9.25;;;4.55;;
59930;SDS011;45790;51.538;6.736;2022-12-20T06:23:50;7.55;;;4.22;;
59930;SDS011;45790;51.538;6.736;2022-12-20T06:26:15;8.80;;;4.78;;
59930;SDS011;45790;51.538;6.736;2022-12-20T06:28:40;7.47;;;4.22;;
59930;SDS011;45790;51.538;6.736;2022-12-20T06:31:10;7.20;;;3.75;;
59930;SDS011;45790;51.538;6.736;2022-12-20T06:33:36;7.78;;;4.15;;
59930;SDS011;45790;51.538;6.736;2022-12-20T06:36:09;7.95;;;3.88;;
59930;SDS011;45790;51.538;6.736;2022-12-20T06:38:34;8.00;;;4.28;;
59930;SDS011;45790;51.538;6.736;2022-12-20T06:41:00;9.43;;;3.97;;
59930;SDS011;45790;51.538;6.736;2022-12-20T06:43:28;8.02;;;4.30;;
59930;SDS011;45790;51.538;6.736;2022-12-20T06:45:56;11.05;;;4.38;;
59930;SDS011;45790;51.538;6.736;2022-12-20T06:48:22;8.95;;;4.85;;
59930;SDS011;45790;51.538;6.736;2022-12-20T06:50:48;11.18;;;4.53;;
59930;SDS011;45790;51.538;6.736;2022-12-20T06:53:13;7.70;;;4.10;;
59930;SDS011;45790;51.538;6.736;2022-12-20T06:55:39;9.32;;;4.70;;
59930;SDS011;45790;51.538;6.736;2022-12-20T06:58:04;10.18;;;4.60;;
59930;SDS011;45790;51.538;6.736;2022-12-20T07:00:32;9.30;;;3.92;;
59930;SDS011;45790;51.538;6.736;2022-12-20T07:03:00;8.35;;;3.70;;
59930;SDS011;45790;51.538;6.736;2022-12-20T07:05:31;7.35;;;4.10;;
59930;SDS011;45790;51.538;6.736;2022-12-20T07:07:56;9.75;;;3.53;;
59930;SDS011;45790;51.538;6.736;2022-12-20T07:10:21;10.35;;;3.90;;
59930;SDS011;45790;51.538;6.736;2022-12-20T07:12:50;9.40;;;3.92;;
59930;SDS011;45790;51.538;6.736;2022-12-20T07:15:16;7.63;;;3.92;;
59930;SDS011;45790;51.538;6.736;2022-12-20T07:17:42;7.00;;;3.72;;
59930;SDS011;45790;51.538;6.736;2022-12-20T07:20:07;6.35;;;3.70;;
59930;SDS011;45790;51.538;6.736;2022-12-20T07:22:33;6.68;;;3.72;;
59930;SDS011;45790;51.538;6.736;2022-12-20T07:24:58;6.75;;;3.95;;
59930;SDS011;45790;51.538;6.736;2022-12-20T07:27:24;8.15;;;3.28;;
59930;SDS011;45790;51.538;6.736;2022-12-20T07:29:49;6.15;;;3.42;;
59930;SDS011;45790;51.538;6.736;2022-12-20T07:32:15;5.72;;;3.40;;
59930;SDS011;45790;51.538;6.736;2022-12-20T07:34:40;6.28;;;3.35;;
59930;SDS011;45790;51.538;6.736;2022-12-20T07:37:08;6.65;;;3.42;;
59930;SDS011;45790;51.538;6.736;2022-12-20T07:39:33;5.85;;;3.38;;
59930;SDS011;45790;51.538;6.736;2022-12-20T07:41:59;5.80;;;3.42;;
59930;SDS011;45790;51.538;6.736;2022-12-20T07:44:24;6.25;;;3.50;;
59930;SDS011;45790;51.538;6.736;2022-12-20T07:46:49;6.82;;;3.75;;
59930;SDS011;45790;51.538;6.736;2022-12-20T07:49:15;5.38;;;3.10;;
59930;SDS011;45790;51.538;6.736;2022-12-20T07:51:41;7.00;;;3.20;;
59930;SDS011;45790;51.538;6.736;2022-12-20T07:54:17;7.63;;;3.40;;
59930;SDS011;45790;51.538;6.736;2022-12-20T07:56:51;5.95;;;3.28;;
59930;SDS011;45790;51.538;6.736;2022-12-20T08:01:51;7.87;;;3.30;;
59930;SDS011;45790;51.538;6.736;2022-12-20T08:04:17;6.68;;;3.33;;
59930;SDS011;45790;51.538;6.736;2022-12-20T08:06:45;6.72;;;3.17;;
59930;SDS011;45790;51.538;6.736;2022-12-20T08:09:10;7.40;;;3.92;;
59930;SDS011;45790;51.538;6.736;2022-12-20T08:11:39;9.45;;;3.85;;
59930;SDS011;45790;51.538;6.736;2022-12-20T08:14:07;8.07;;;3.50;;
59930;SDS011;45790;51.538;6.736;2022-12-20T08:16:33;7.13;;;3.45;;
59930;SDS011;45790;51.538;6.736;2022-12-20T08:18:58;7.90;;;3.80;;
59930;SDS011;45790;51.538;6.736;2022-12-20T08:21:24;8.82;;;4.00;;
59930;SDS011;45790;51.538;6.736;2022-12-20T08:23:49;9.23;;;4.85;;
59930;SDS011;45790;51.538;6.736;2022-12-20T08:26:15;27.88;;;6.78;;
59930;SDS011;45790;51.538;6.736;2022-12-20T08:28:41;34.50;;;9.05;;
59930;SDS011;45790;51.538;6.736;2022-12-20T08:31:07;30.02;;;8.70;;
59930;SDS011;45790;51.538;6.736;2022-12-20T08:33:33;30.98;;;7.78;;
59930;SDS011;45790;51.538;6.736;2022-12-20T08:36:00;21.67;;;7.65;;
59930;SDS011;45790;51.538;6.736;2022-12-20T08:38:30;24.15;;;7.80;;
59930;SDS011;45790;51.538;6.736;2022-12-20T08:43:35;23.83;;;8.15;;
59930;SDS011;45790;51.538;6.736;2022-12-20T08:46:00;19.75;;;7.63;;
59930;SDS011;45790;51.538;6.736;2022-12-20T08:48:29;24.35;;;6.85;;
59930;SDS011;45790;51.538;6.736;2022-12-20T08:50:55;24.55;;;7.60;;
59930;SDS011;45790;51.538;6.736;2022-12-20T08:53:24;19.13;;;6.85;;
59930;SDS011;45790;51.538;6.736;2022-12-20T08:55:50;28.15;;;7.68;;
59930;SDS011;45790;51.538;6.736;2022-12-20T08:58:15;21.17;;;6.22;;
59930;SDS011;45790;51.538;6.736;2022-12-20T09:00:41;27.90;;;7.00;;
59930;SDS011;45790;51.538;6.736;2022-12-20T09:03:06;24.58;;;7.22;;
59930;SDS011;45790;51.538;6.736;2022-12-20T09:05:33;21.42;;;7.05;;
59930;SDS011;45790;51.538;6.736;2022-12-20T09:07:59;16.77;;;6.68;;
59930;SDS011;45790;51.538;6.736;2022-12-20T09:10:24;21.45;;;7.05;;
59930;SDS011;45790;51.538;6.736;2022-12-20T09:12:49;13.93;;;7.15;;
59930;SDS011;45790;51.538;6.736;2022-12-20T09:15:15;16.83;;;5.57;;
59930;SDS011;45790;51.538;6.736;2022-12-20T09:17:40;17.67;;;6.32;;
59930;SDS011;45790;51.538;6.736;2022-12-20T09:20:05;15.20;;;6.05;;
59930;SDS011;45790;51.538;6.736;2022-12-20T09:22:31;16.23;;;6.55;;
59930;SDS011;45790;51.538;6.736;2022-12-20T09:24:56;18.23;;;6.60;;
59930;SDS011;45790;51.538;6.736;2022-12-20T09:27:22;15.32;;;6.30;;
59930;SDS011;45790;51.538;6.736;2022-12-20T09:29:47;20.98;;;6.90;;
59930;SDS011;45790;51.538;6.736;2022-12-20T09:32:13;16.40;;;6.45;;
59930;SDS011;45790;51.538;6.736;2022-12-20T09:34:38;19.35;;;6.55;;
59930;SDS011;45790;51.538;6.736;2022-12-20T09:37:04;15.43;;;5.95;;
59930;SDS011;45790;51.538;6.736;2022-12-20T09:39:29;19.73;;;6.63;;
59930;SDS011;45790;51.538;6.736;2022-12-20T09:41:57;17.15;;;6.40;;
59930;SDS011;45790;51.538;6.736;2022-12-20T09:44:35;15.35;;;6.15;;
59930;SDS011;45790;51.538;6.736;2022-12-20T09:47:23;17.17;;;6.85;;
59930;SDS011;45790;51.538;6.736;2022-12-20T09:49:52;15.55;;;6.05;;
59930;SDS011;45790;51.538;6.736;2022-12-20T10:00:44;11.10;;;5.82;;
59930;SDS011;45790;51.538;6.736;2022-12-20T10:16:52;17.13;;;7.07;;
59930;SDS011;45790;51.538;6.736;2022-12-20T10:22:10;16.98;;;5.95;;
59930;SDS011;45790;51.538;6.736;2022-12-20T10:24:39;13.23;;;6.63;;
59930;SDS011;45790;51.538;6.736;2022-12-20T10:27:24;13.73;;;6.10;;
59930;SDS011;45790;51.538;6.736;2022-12-20T10:29:49;16.85;;;6.18;;
59930;SDS011;45790;51.538;6.736;2022-12-20T10:32:16;13.88;;;5.65;;
59930;SDS011;45790;51.538;6.736;2022-12-20T10:34:58;18.10;;;6.25;;
59930;SDS011;45790;51.538;6.736;2022-12-20T10:37:39;17.75;;;6.63;;
59930;SDS011;45790;51.538;6.736;2022-12-20T10:40:40;15.45;;;6.00;;
59930;SDS011;45790;51.538;6.736;2022-12-20T10:43:12;12.52;;;5.57;;
59930;SDS011;45790;51.538;6.736;2022-12-20T10:45:40;13.07;;;6.32;;
59930;SDS011;45790;51.538;6.736;2022-12-20T10:48:27;14.90;;;6.18;;
59930;SDS011;45790;51.538;6.736;2022-12-20T10:50:56;15.77;;;5.95;;
59930;SDS011;45790;51.538;6.736;2022-12-20T10:53:26;14.00;;;5.20;;
59930;SDS011;45790;51.538;6.736;2022-12-20T10:55:52;17.13;;;6.20;;
59930;SDS011;45790;51.538;6.736;2022-12-20T10:58:31;12.73;;;6.10;;
59930;SDS011;45790;51.538;6.736;2022-12-20T11:01:04;13.82;;;5.95;;
59930;SDS011;45790;51.538;6.736;2022-12-20T11:03:47;14.50;;;5.75;;
59930;SDS011;45790;51.538;6.736;2022-12-20T11:06:28;20.48;;;6.28;;
59930;SDS011;45790;51.538;6.736;2022-12-20T11:11:59;14.77;;;6.43;;
59930;SDS011;45790;51.538;6.736;2022-12-20T11:14:28;12.48;;;6.13;;
59930;SDS011;45790;51.538;6.736;2022-12-20T11:16:55;14.40;;;6.25;;
59930;SDS011;45790;51.538;6.736;2022-12-20T11:19:29;15.88;;;6.10;;
59930;SDS011;45790;51.538;6.736;2022-12-20T11:22:17;17.15;;;5.78;;
59930;SDS011;45790;51.538;6.736;2022-12-20T11:27:43;19.42;;;5.65;;
59930;SDS011;45790;51.538;6.736;2022-12-20T11:30:18;11.75;;;5.78;;
59930;SDS011;45790;51.538;6.736;2022-12-20T11:33:01;12.95;;;5.57;;
59930;SDS011;45790;51.538;6.736;2022-12-20T11:35:39;12.80;;;5.72;;
59930;SDS011;45790;51.538;6.736;2022-12-20T11:38:34;14.63;;;5.60;;
59930;SDS011;45790;51.538;6.736;2022-12-20T11:41:07;11.15;;;4.95;;
59930;SDS011;45790;51.538;6.736;2022-12-20T11:49:12;13.30;;;6.47;;
59930;SDS011;45790;51.538;6.736;2022-12-20T11:51:45;11.25;;;5.70;;
59930;SDS011;45790;51.538;6.736;2022-12-20T11:56:44;11.55;;;5.05;;
59930;SDS011;45790;51.538;6.736;2022-12-20T12:02:22;12.25;;;5.10;;
59930;SDS011;45790;51.538;6.736;2022-12-20T12:05:04;12.45;;;5.22;;
59930;SDS011;45790;51.538;6.736;2022-12-20T12:07:31;12.75;;;5.30;;
59930;SDS011;45790;51.538;6.736;2022-12-20T12:10:00;7.65;;;4.80;;
59930;SDS011;45790;51.538;6.736;2022-12-20T12:12:28;8.35;;;4.95;;
59930;SDS011;45790;51.538;6.736;2022-12-20T12:18:01;9.82;;;5.28;;
59930;SDS011;45790;51.538;6.736;2022-12-20T12:23:34;9.13;;;4.85;;
59930;SDS011;45790;51.538;6.736;2022-12-20T12:26:04;10.20;;;5.43;;
59930;SDS011;45790;51.538;6.736;2022-12-20T12:28:33;8.35;;;4.85;;
59930;SDS011;45790;51.538;6.736;2022-12-20T12:31:02;10.52;;;5.18;;
59930;SDS011;45790;51.538;6.736;2022-12-20T12:33:32;8.27;;;4.47;;
59930;SDS011;45790;51.538;6.736;2022-12-20T12:36:07;8.38;;;4.55;;
59930;SDS011;45790;51.538;6.736;2022-12-20T12:47:36;8.77;;;4.45;;
59930;SDS011;45790;51.538;6.736;2022-12-20T12:50:02;7.25;;;4.18;;
59930;SDS011;45790;51.538;6.736;2022-12-20T12:52:44;7.93;;;4.53;;
59930;SDS011;45790;51.538;6.736;2022-12-20T13:00:50;10.55;;;5.40;;
59930;SDS011;45790;51.538;6.736;2022-12-20T13:16:45;9.15;;;4.95;;
59930;SDS011;45790;51.538;6.736;2022-12-20T13:19:12;12.23;;;4.65;;
59930;SDS011;45790;51.538;6.736;2022-12-20T13:21:41;10.98;;;5.25;;
59930;SDS011;45790;51.538;6.736;2022-12-20T13:40:31;9.93;;;4.28;;
59930;SDS011;45790;51.538;6.736;2022-12-20T13:45:53;7.97;;;3.30;;
59930;SDS011;45790;51.538;6.736;2022-12-20T13:48:25;7.50;;;3.67;;
59930;SDS011;45790;51.538;6.736;2022-12-20T13:50:53;6.13;;;3.55;;
59930;SDS011;45790;51.538;6.736;2022-12-20T13:53:21;5.72;;;3.35;;
59930;SDS011;45790;51.538;6.736;2022-12-20T13:55:48;7.30;;;3.50;;
59930;SDS011;45790;51.538;6.736;2022-12-20T13:58:27;5.93;;;3.28;;
59930;SDS011;45790;51.538;6.736;2022-12-20T14:01:11;6.97;;;3.17;;
59930;SDS011;45790;51.538;6.736;2022-12-20T14:03:41;6.22;;;3.38;;
59930;SDS011;45790;51.538;6.736;2022-12-20T14:06:10;6.10;;;3.10;;
59930;SDS011;45790;51.538;6.736;2022-12-20T14:08:45;5.47;;;2.95;;
59930;SDS011;45790;51.538;6.736;2022-12-20T14:11:16;6.03;;;3.15;;
59930;SDS011;45790;51.538;6.736;2022-12-20T14:16:27;5.13;;;2.78;;
59930;SDS011;45790;51.538;6.736;2022-12-20T14:21:21;5.68;;;2.60;;
59930;SDS011;45790;51.538;6.736;2022-12-20T14:23:48;6.47;;;2.83;;
59930;SDS011;45790;51.538;6.736;2022-12-20T14:26:15;6.75;;;2.55;;
59930;SDS011;45790;51.538;6.736;2022-12-20T14:28:46;5.05;;;2.60;;
59930;SDS011;45790;51.538;6.736;2022-12-20T14:34:03;5.13;;;2.60;;
59930;SDS011;45790;51.538;6.736;2022-12-20T14:36:30;4.75;;;2.40;;
59930;SDS011;45790;51.538;6.736;2022-12-20T14:38:56;5.45;;;2.53;;
59930;SDS011;45790;51.538;6.736;2022-12-20T14:41:35;5.45;;;2.80;;
59930;SDS011;45790;51.538;6.736;2022-12-20T14:46:30;5.30;;;2.28;;
59930;SDS011;45790;51.538;6.736;2022-12-20T14:51:37;5.88;;;2.58;;
59930;SDS011;45790;51.538;6.736;2022-12-20T14:54:03;5.28;;;2.60;;
59930;SDS011;45790;51.538;6.736;2022-12-20T14:56:28;4.78;;;2.40;;
59930;SDS011;45790;51.538;6.736;2022-12-20T14:59:12;5.32;;;2.53;;
59930;SDS011;45790;51.538;6.736;2022-12-20T15:01:39;8.02;;;2.90;;
59930;SDS011;45790;51.538;6.736;2022-12-20T15:04:21;5.53;;;2.88;;
59930;SDS011;45790;51.538;6.736;2022-12-20T15:06:48;5.43;;;2.72;;
59930;SDS011;45790;51.538;6.736;2022-12-20T15:09:16;6.70;;;2.90;;
59930;SDS011;45790;51.538;6.736;2022-12-20T15:11:42;5.38;;;2.80;;
59930;SDS011;45790;51.538;6.736;2022-12-20T15:17:00;8.38;;;2.72;;
59930;SDS011;45790;51.538;6.736;2022-12-20T15:19:27;7.35;;;2.75;;
59930;SDS011;45790;51.538;6.736;2022-12-20T15:21:52;6.65;;;2.55;;
59930;SDS011;45790;51.538;6.736;2022-12-20T15:24:18;4.13;;;2.50;;
59930;SDS011;45790;51.538;6.736;2022-12-20T15:26:46;5.85;;;3.35;;
59930;SDS011;45790;51.538;6.736;2022-12-20T15:29:15;7.53;;;3.53;;
59930;SDS011;45790;51.538;6.736;2022-12-20T15:31:45;4.80;;;2.97;;
59930;SDS011;45790;51.538;6.736;2022-12-20T15:37:05;8.82;;;3.15;;
59930;SDS011;45790;51.538;6.736;2022-12-20T15:39:31;6.28;;;3.15;;
59930;SDS011;45790;51.538;6.736;2022-12-20T15:42:01;6.82;;;3.08;;
59930;SDS011;45790;51.538;6.736;2022-12-20T15:44:28;5.90;;;2.65;;
59930;SDS011;45790;51.538;6.736;2022-12-20T15:46:54;7.65;;;3.13;;
59930;SDS011;45790;51.538;6.736;2022-12-20T15:51:47;6.68;;;3.22;;
59930;SDS011;45790;51.538;6.736;2022-12-20T15:54:35;5.53;;;2.85;;
59930;SDS011;45790;51.538;6.736;2022-12-20T15:57:01;7.45;;;3.13;;
59930;SDS011;45790;51.538;6.736;2022-12-20T15:59:39;6.55;;;2.97;;
59930;SDS011;45790;51.538;6.736;2022-12-20T16:02:21;6.15;;;3.10;;
59930;SDS011;45790;51.538;6.736;2022-12-20T16:04:48;6.57;;;2.97;;
59930;SDS011;45790;51.538;6.736;2022-12-20T16:07:19;6.85;;;3.83;;
59930;SDS011;45790;51.538;6.736;2022-12-20T16:09:52;6.47;;;2.70;;
59930;SDS011;45790;51.538;6.736;2022-12-20T16:12:20;7.30;;;3.47;;
59930;SDS011;45790;51.538;6.736;2022-12-20T16:14:58;8.93;;;3.63;;
59930;SDS011;45790;51.538;6.736;2022-12-20T16:17:36;6.30;;;2.88;;
59930;SDS011;45790;51.538;6.736;2022-12-20T16:20:02;6.32;;;3.03;;
59930;SDS011;45790;51.538;6.736;2022-12-20T16:22:31;9.20;;;3.42;;
59930;SDS011;45790;51.538;6.736;2022-12-20T16:24:59;10.38;;;5.05;;
59930;SDS011;45790;51.538;6.736;2022-12-20T16:27:29;7.85;;;3.92;;
59930;SDS011;45790;51.538;6.736;2022-12-20T16:29:54;7.53;;;3.83;;
59930;SDS011;45790;51.538;6.736;2022-12-20T16:32:22;8.13;;;3.83;;
59930;SDS011;45790;51.538;6.736;2022-12-20T16:34:59;10.10;;;5.25;;
59930;SDS011;45790;51.538;6.736;2022-12-20T16:37:27;8.15;;;4.32;;
59930;SDS011;45790;51.538;6.736;2022-12-20T16:39:52;10.38;;;4.55;;
59930;SDS011;45790;51.538;6.736;2022-12-20T16:42:21;11.52;;;4.85;;
59930;SDS011;45790;51.538;6.736;2022-12-20T16:44:49;7.20;;;4.38;;
59930;SDS011;45790;51.538;6.736;2022-12-20T16:47:21;10.13;;;4.63;;
59930;SDS011;45790;51.538;6.736;2022-12-20T16:50:04;8.32;;;4.22;;
59930;SDS011;45790;51.538;6.736;2022-12-20T16:52:33;9.35;;;4.97;;
59930;SDS011;45790;51.538;6.736;2022-12-20T16:55:01;10.95;;;5.28;;
59930;SDS011;45790;51.538;6.736;2022-12-20T16:57:35;9.68;;;4.18;;
59930;SDS011;45790;51.538;6.736;2022-12-20T17:00:04;8.00;;;4.35;;
59930;SDS011;45790;51.538;6.736;2022-12-20T17:02:35;10.18;;;4.50;;
59930;SDS011;45790;51.538;6.736;2022-12-20T17:05:03;8.00;;;4.32;;
59930;SDS011;45790;51.538;6.736;2022-12-20T17:07:31;9.18;;;4.18;;
59930;SDS011;45790;51.538;6.736;2022-12-20T17:09:59;10.02;;;4.80;;
59930;SDS011;45790;51.538;6.736;2022-12-20T17:12:27;7.88;;;3.95;;
59930;SDS011;45790;51.538;6.736;2022-12-20T17:15:02;8.98;;;4.45;;